Reklama
Líbí se Vám tento web? Budeme velmi rádi, pokud přidáte hodnocení +1

Seznam meteostanic a jejich METAR

Vyhledat místa podle abecedy:
A B C D E F G H I J K L M N O P Q R S T U V W X Y Z

Filtrovat:

ID stanice:
a/nebo
Název místa (fulltext):
 
Místo (ID)Naposledy načteno 
Liberec (Liberec) 21.06.2018 02:00 UTC Zobrazit data
Místo: Liberec
Teplota: 17 °C (pocitová: 15.9 °C)
Vítr: 2 m/s z(e) 130°
Počasí:
Dohlednost: 35 km
Zákl. oblačnosti: N/A
Vlhkost: 77%
Luká (Luka) 21.06.2018 02:00 UTC Zobrazit data
Místo: Luká
Teplota: 19 °C (pocitová: 18 °C)
Vítr: 3 m/s z(e) 160°
Počasí: zataženo
Dohlednost: 35 km
Zákl. oblačnosti: 8/8 1800 m
Vlhkost: 64%
Lysá Hora (Lysa Hora) 21.06.2018 02:00 UTC Zobrazit data
Místo: Lysá Hora
Teplota: 15 °C (pocitová: 12.7 °C)
Vítr: 3 m/s z(e) 240°
Počasí: skorojasno
Dohlednost: 16 km
Zákl. oblačnosti: 1/8 600 m
Vlhkost: 88%
L'viv (UKLL) 13.12.2012 15:00 UTC  
La Palma (GCLA) 21.06.2018 02:00 UTC Zobrazit METAR
GCLA 210200Z AUTO 04009KT 360V060 9999 SCT024/// 20/17 Q1020
La Paz (SLLP) 21.06.2018 02:00 UTC Zobrazit METAR
SLLP 210200Z VRB02KT 9999 NSC 03/M04 Q1040
Laayoune (GMML) 21.06.2018 02:00 UTC Zobrazit METAR
GMML 210200Z 36012KT 9999 SCT020 20/15 Q1018 NOSIG
Larnaca (LCLK) 21.06.2018 02:00 UTC Zobrazit METAR
LCLK 210200Z VRB02KT CAVOK 21/21 Q1013 NOSIG
Leipzig-Halle (EDDP) 21.06.2018 01:50 UTC Zobrazit METAR
EDDP 210150Z 25005KT CAVOK 17/14 Q1014 NOSIG
Libreville (FOOL) 21.06.2018 02:00 UTC Zobrazit METAR
FOOL 210200Z 16009KT 9999 SCT016 24/22 Q1014 NOSIG
Liege (EBLG) 21.06.2018 01:50 UTC Zobrazit METAR
EBLG 210150Z 23009KT CAVOK 16/14 Q1017 NOSIG
Liepaja (EVLA) 21.06.2018 01:50 UTC Zobrazit METAR
EVLA 210150Z AUTO 21015KT 9999 SCT075/// BKN100/// 19/13 Q1009
Lille (LFQQ) 21.06.2018 02:00 UTC Zobrazit METAR
LFQQ 210200Z AUTO 26008KT 9999 BKN006 BKN025 BKN098 15/14 Q1018 TEMPO 3000 DZ BR BECMG 33012KT NSC
Lilongwe (FWLI) 04.06.2013 21:00 UTC Zobrazit METAR
FWLI 042100Z 05003KT CAVOK 14/11 Q1023 NOSIG
Lima - Callao (SPIM) 10.05.2018 14:00 UTC Zobrazit METAR
SPIM 101400Z 21005KT 170V240 5000 BR OVC004 18/17 Q1017 NOSIG RMK PP000
Limnos (LGLM) 21.06.2018 01:50 UTC Zobrazit METAR
LGLM 210150Z 02007KT 9999 FEW018 24/16 Q1014
Linz (LOWL) 21.06.2018 01:50 UTC Zobrazit METAR
LOWL 210150Z AUTO 22002KT 9999 NSC 17/15 Q1017
Lisbon (LPPT) 20.06.2018 18:00 UTC Zobrazit METAR
LPPT 201800Z VRB03KT 9999 FEW035 27/15 Q1015
Liverpool (EGGP) 21.06.2018 01:50 UTC Zobrazit METAR
EGGP 210150Z 30019KT 9999 -SHRA SCT029 SCT037 11/07 Q1023
Ljubljana (LJLJ) 21.06.2018 02:00 UTC Zobrazit METAR
LJLJ 210200Z 31001KT CAVOK 15/14 Q1019 NOSIG
Lome (DXXX) 21.06.2018 02:00 UTC Zobrazit METAR
DXXX 210200Z 29004KT 260V320 9999 FEW009 22/21 Q1013 NOSIG
London (EGLL) 21.06.2018 01:50 UTC Zobrazit METAR
EGLL 210150Z AUTO 33005KT 290V010 9999 SCT049 13/06 Q1022 NOSIG
Luanda (FNLU) 21.06.2018 01:00 UTC Zobrazit METAR
FNLU 210100Z 19004KT 8000 BKN020 21/18 Q1017
Lulea (ESPA) 20.06.2018 21:50 UTC Zobrazit METAR
ESPA 202150Z 27003KT CAVOK 12/03 Q0999
Lusaka (FLLS) 13.01.2014 07:00 UTC Zobrazit METAR
FLLS 130700Z 36009KT CAVOK 25/20 Q1019
Luxembourg Airport (ELLX) 20.06.2018 22:50 UTC Zobrazit METAR
ELLX 202250Z 32008KT CAVOK 19/14 Q1019 NOSIG
Lyon (LFLL) 21.06.2018 02:00 UTC Zobrazit METAR
LFLL 210200Z 15004KT CAVOK 21/16 Q1018 NOSIG
Reklama

Počasí na Váš email

Emaily jsou bez reklamy a bez spamu



Odhlásit newsletter

Reklama


Lunární kalendář

  • 28.06.
  • 06.07.
  • 13.07.
  • 19.07.



Slunečno.cz na Google+

Reklama


Reklama
Povinné ručení
Reklama




Reklama